CYAH

La Grande Iv  Airport

La Grande, Canada

CYAH 200000Z AUTO 30006KT 1 1/4SM -SN OVC007 M03/M03 A2911 RMK SLP879

Observed Flight Rules
Nov-20 @ 00:00 UTC (25 minutes ago)
 
Instrument Flight Rules
Wind Visibility Clouds Conditions
300° at 6 knots 1 1/4 miles
  • Overcast at 700' AGL
  • Light Snow
Temperatures Readings
Current -3°C / 27°F
Dewpoint -3°C / 27°F
Humidity 100%
Altimeter 29.11" Hg
Pressure 987.9 hPa
Elevation 306
Observed Flight Rules
Nov-20 @ 00:00 UTC
(25 minutes ago)
 
IFR
Wind Visibility
300° at 6 knots 1 1/4 miles
Clouds
  • Overcast at 700' AGL
Conditions
  • Light Snow
Temperature Dewpoint
-3°C / 27°F -3°C / 27°F
Humidity Altimeter Pressure
100% 29.11" Hg 987.9 hPa